メインページ
METAR-TAF:

METAR-TAF

空港 :

バーレーン, バーレーン

バーレーン国際空港

緯度: 26-16N, 経度: 050-39E, 海抜: 2m

現時点の気象観測

当レポートは18分前の23:00(UTC)に作成
北西の風 8kt
気温 32°C
湿度 63%
気圧 1002 hPa
視程10km以上
1,500メートル以下は雲なし、積乱雲なし

METAR: OBBI 272300Z 31008KT CAVOK 32/24 Q1002 NOSIG

時間: 02:18 (23:18 UTC)

予報

当レポートは6時間18分前の17:00(UTC)に作成
予報は27日の 18時(UTC)から 29日の 00時(UTC)まで有効
北西の風 12kt
視程: 8000m
28日の 03時(UTC)から 28日の 05時(UTC)まで徐々に
北/北西の風 15kt、最大25ktの突風を伴う

TAF: OBBI 271700Z 2718/2900 32012KT 8000 NSC BECMG 2803/2805 34015G25KT

4,000以上の空港の気象観測と天気予報(METAR報とTAF報)

利用可能な観測所は地図上に黄色い丸と赤い丸で示す。

丸の上にカーソルを重ねると観測所名を参照できる。

次にクリックすると気象観測と天気予報を参照できる。

マップの切り替え:黒色「×」印の緑ボタンをクリックして拡大、「-」印の緑ボタンをクリックして縮小、緑色の三角印をクリックして隣りの地図に切り替え


METAR-TAF: